sensor_id;sensor_type;location;lat;lon;timestamp;P1;durP1;ratioP1;P2;durP2;ratioP2
4638;SDS011;2332;38.646;-9.154;2023-02-28T00:00:07;6.73;;;4.40;;
4638;SDS011;2332;38.646;-9.154;2023-02-28T00:02:39;10.20;;;5.67;;
4638;SDS011;2332;38.646;-9.154;2023-02-28T00:05:04;16.07;;;5.87;;
4638;SDS011;2332;38.646;-9.154;2023-02-28T00:07:30;19.23;;;5.40;;
4638;SDS011;2332;38.646;-9.154;2023-02-28T00:09:55;9.53;;;5.33;;
4638;SDS011;2332;38.646;-9.154;2023-02-28T00:12:21;15.67;;;4.67;;
4638;SDS011;2332;38.646;-9.154;2023-02-28T00:14:46;11.23;;;4.83;;
4638;SDS011;2332;38.646;-9.154;2023-02-28T00:17:12;6.97;;;3.67;;
4638;SDS011;2332;38.646;-9.154;2023-02-28T00:19:37;4.70;;;3.40;;
4638;SDS011;2332;38.646;-9.154;2023-02-28T00:22:02;5.37;;;4.03;;
4638;SDS011;2332;38.646;-9.154;2023-02-28T00:24:28;12.50;;;4.13;;
4638;SDS011;2332;38.646;-9.154;2023-02-28T00:26:53;10.23;;;4.17;;
4638;SDS011;2332;38.646;-9.154;2023-02-28T00:29:19;7.53;;;3.70;;
4638;SDS011;2332;38.646;-9.154;2023-02-28T00:31:44;8.60;;;4.53;;
4638;SDS011;2332;38.646;-9.154;2023-02-28T00:34:09;12.33;;;3.97;;
4638;SDS011;2332;38.646;-9.154;2023-02-28T00:36:35;10.57;;;3.90;;
4638;SDS011;2332;38.646;-9.154;2023-02-28T00:39:00;8.30;;;3.83;;
4638;SDS011;2332;38.646;-9.154;2023-02-28T00:41:26;7.47;;;3.40;;
4638;SDS011;2332;38.646;-9.154;2023-02-28T00:43:51;4.53;;;3.70;;
4638;SDS011;2332;38.646;-9.154;2023-02-28T00:46:16;15.63;;;3.50;;
4638;SDS011;2332;38.646;-9.154;2023-02-28T00:48:42;7.57;;;3.30;;
4638;SDS011;2332;38.646;-9.154;2023-02-28T00:51:07;9.90;;;3.63;;
4638;SDS011;2332;38.646;-9.154;2023-02-28T00:53:32;7.43;;;3.93;;
4638;SDS011;2332;38.646;-9.154;2023-02-28T00:55:58;6.03;;;3.77;;
4638;SDS011;2332;38.646;-9.154;2023-02-28T00:58:23;8.00;;;3.73;;
4638;SDS011;2332;38.646;-9.154;2023-02-28T01:00:49;6.10;;;3.30;;
4638;SDS011;2332;38.646;-9.154;2023-02-28T01:03:15;9.73;;;3.57;;
4638;SDS011;2332;38.646;-9.154;2023-02-28T01:05:41;6.13;;;2.93;;
4638;SDS011;2332;38.646;-9.154;2023-02-28T01:08:06;10.43;;;3.70;;
4638;SDS011;2332;38.646;-9.154;2023-02-28T01:10:32;5.93;;;2.93;;
4638;SDS011;2332;38.646;-9.154;2023-02-28T01:12:57;3.60;;;3.20;;
4638;SDS011;2332;38.646;-9.154;2023-02-28T01:15:23;4.27;;;3.07;;
4638;SDS011;2332;38.646;-9.154;2023-02-28T01:17:48;11.37;;;4.20;;
4638;SDS011;2332;38.646;-9.154;2023-02-28T01:20:13;10.20;;;4.07;;
4638;SDS011;2332;38.646;-9.154;2023-02-28T01:22:39;7.60;;;3.60;;
4638;SDS011;2332;38.646;-9.154;2023-02-28T01:25:04;3.90;;;3.50;;
4638;SDS011;2332;38.646;-9.154;2023-02-28T01:27:33;3.90;;;3.50;;
4638;SDS011;2332;38.646;-9.154;2023-02-28T01:29:58;8.53;;;4.00;;
4638;SDS011;2332;38.646;-9.154;2023-02-28T01:32:23;9.07;;;3.80;;
4638;SDS011;2332;38.646;-9.154;2023-02-28T01:34:49;6.17;;;3.17;;
4638;SDS011;2332;38.646;-9.154;2023-02-28T01:37:14;4.57;;;3.23;;
4638;SDS011;2332;38.646;-9.154;2023-02-28T01:39:40;7.60;;;3.90;;
4638;SDS011;2332;38.646;-9.154;2023-02-28T01:42:05;8.50;;;3.97;;
4638;SDS011;2332;38.646;-9.154;2023-02-28T01:47:15;5.30;;;3.60;;
4638;SDS011;2332;38.646;-9.154;2023-02-28T01:49:40;7.97;;;3.87;;
4638;SDS011;2332;38.646;-9.154;2023-02-28T01:52:05;6.40;;;3.80;;
4638;SDS011;2332;38.646;-9.154;2023-02-28T01:54:31;8.30;;;4.80;;
4638;SDS011;2332;38.646;-9.154;2023-02-28T01:57:01;10.83;;;4.60;;
4638;SDS011;2332;38.646;-9.154;2023-02-28T01:59:38;8.80;;;4.60;;
4638;SDS011;2332;38.646;-9.154;2023-02-28T02:02:10;7.17;;;4.63;;
4638;SDS011;2332;38.646;-9.154;2023-02-28T02:04:37;8.13;;;4.53;;
4638;SDS011;2332;38.646;-9.154;2023-02-28T02:07:04;9.43;;;4.53;;
4638;SDS011;2332;38.646;-9.154;2023-02-28T02:09:30;9.60;;;5.03;;
4638;SDS011;2332;38.646;-9.154;2023-02-28T02:11:55;9.23;;;5.33;;
4638;SDS011;2332;38.646;-9.154;2023-02-28T02:17:21;6.20;;;4.70;;
4638;SDS011;2332;38.646;-9.154;2023-02-28T02:25:19;9.43;;;5.10;;
4638;SDS011;2332;38.646;-9.154;2023-02-28T02:27:57;9.30;;;5.30;;
4638;SDS011;2332;38.646;-9.154;2023-02-28T02:38:13;11.03;;;5.30;;
4638;SDS011;2332;38.646;-9.154;2023-02-28T02:40:43;7.70;;;4.50;;
4638;SDS011;2332;38.646;-9.154;2023-02-28T02:45:45;7.30;;;5.10;;
4638;SDS011;2332;38.646;-9.154;2023-02-28T02:48:13;13.40;;;5.30;;
4638;SDS011;2332;38.646;-9.154;2023-02-28T02:50:45;8.50;;;4.73;;
4638;SDS011;2332;38.646;-9.154;2023-02-28T02:53:11;5.67;;;4.60;;
4638;SDS011;2332;38.646;-9.154;2023-02-28T02:55:41;10.50;;;5.43;;
4638;SDS011;2332;38.646;-9.154;2023-02-28T02:58:09;10.40;;;6.30;;
4638;SDS011;2332;38.646;-9.154;2023-02-28T03:00:37;8.57;;;5.13;;
4638;SDS011;2332;38.646;-9.154;2023-02-28T03:03:04;7.50;;;5.20;;
4638;SDS011;2332;38.646;-9.154;2023-02-28T03:08:08;10.40;;;6.50;;
4638;SDS011;2332;38.646;-9.154;2023-02-28T03:10:35;12.43;;;5.80;;
4638;SDS011;2332;38.646;-9.154;2023-02-28T03:15:57;10.53;;;5.30;;
4638;SDS011;2332;38.646;-9.154;2023-02-28T03:23:19;9.20;;;6.37;;
4638;SDS011;2332;38.646;-9.154;2023-02-28T03:31:12;13.90;;;7.53;;
4638;SDS011;2332;38.646;-9.154;2023-02-28T03:33:42;17.77;;;6.77;;
4638;SDS011;2332;38.646;-9.154;2023-02-28T03:36:13;6.87;;;6.20;;
4638;SDS011;2332;38.646;-9.154;2023-02-28T03:38:56;13.37;;;7.80;;
4638;SDS011;2332;38.646;-9.154;2023-02-28T03:41:23;9.47;;;6.90;;
4638;SDS011;2332;38.646;-9.154;2023-02-28T03:43:53;12.20;;;6.47;;
4638;SDS011;2332;38.646;-9.154;2023-02-28T03:46:19;12.60;;;7.07;;
4638;SDS011;2332;38.646;-9.154;2023-02-28T03:49:07;8.70;;;5.93;;
4638;SDS011;2332;38.646;-9.154;2023-02-28T03:51:34;13.50;;;5.90;;
4638;SDS011;2332;38.646;-9.154;2023-02-28T03:54:02;11.60;;;6.60;;
4638;SDS011;2332;38.646;-9.154;2023-02-28T03:56:33;15.50;;;7.20;;
4638;SDS011;2332;38.646;-9.154;2023-02-28T03:59:20;10.63;;;7.00;;
4638;SDS011;2332;38.646;-9.154;2023-02-28T04:01:48;19.67;;;6.87;;
4638;SDS011;2332;38.646;-9.154;2023-02-28T04:04:14;14.43;;;7.17;;
4638;SDS011;2332;38.646;-9.154;2023-02-28T04:06:40;11.23;;;6.00;;
4638;SDS011;2332;38.646;-9.154;2023-02-28T04:09:06;13.50;;;6.20;;
4638;SDS011;2332;38.646;-9.154;2023-02-28T04:11:33;12.93;;;6.77;;
4638;SDS011;2332;38.646;-9.154;2023-02-28T04:13:59;11.10;;;6.60;;
4638;SDS011;2332;38.646;-9.154;2023-02-28T04:16:25;8.27;;;5.80;;
4638;SDS011;2332;38.646;-9.154;2023-02-28T04:18:50;11.50;;;6.20;;
4638;SDS011;2332;38.646;-9.154;2023-02-28T04:21:16;21.37;;;6.60;;
4638;SDS011;2332;38.646;-9.154;2023-02-28T04:23:45;13.70;;;5.60;;
4638;SDS011;2332;38.646;-9.154;2023-02-28T04:26:10;11.90;;;5.97;;
4638;SDS011;2332;38.646;-9.154;2023-02-28T04:28:36;9.83;;;5.20;;
4638;SDS011;2332;38.646;-9.154;2023-02-28T04:31:03;11.00;;;5.17;;
4638;SDS011;2332;38.646;-9.154;2023-02-28T04:33:30;12.03;;;5.37;;
4638;SDS011;2332;38.646;-9.154;2023-02-28T04:36:00;13.80;;;5.00;;
4638;SDS011;2332;38.646;-9.154;2023-02-28T04:38:38;9.90;;;5.40;;
4638;SDS011;2332;38.646;-9.154;2023-02-28T04:41:04;11.73;;;5.03;;
4638;SDS011;2332;38.646;-9.154;2023-02-28T04:43:30;12.90;;;5.73;;
4638;SDS011;2332;38.646;-9.154;2023-02-28T04:45:56;8.47;;;5.60;;
4638;SDS011;2332;38.646;-9.154;2023-02-28T04:48:25;9.43;;;5.90;;
4638;SDS011;2332;38.646;-9.154;2023-02-28T04:50:52;16.87;;;5.90;;
4638;SDS011;2332;38.646;-9.154;2023-02-28T04:53:17;7.40;;;5.13;;
4638;SDS011;2332;38.646;-9.154;2023-02-28T04:55:43;9.50;;;4.83;;
4638;SDS011;2332;38.646;-9.154;2023-02-28T04:58:08;7.30;;;5.30;;
4638;SDS011;2332;38.646;-9.154;2023-02-28T05:00:34;15.17;;;5.30;;
4638;SDS011;2332;38.646;-9.154;2023-02-28T05:02:59;7.70;;;5.23;;
4638;SDS011;2332;38.646;-9.154;2023-02-28T05:05:25;9.70;;;5.37;;
4638;SDS011;2332;38.646;-9.154;2023-02-28T05:07:50;8.27;;;5.00;;
4638;SDS011;2332;38.646;-9.154;2023-02-28T05:10:15;11.93;;;5.60;;
4638;SDS011;2332;38.646;-9.154;2023-02-28T05:12:41;10.23;;;5.87;;
4638;SDS011;2332;38.646;-9.154;2023-02-28T05:15:07;6.37;;;4.77;;
4638;SDS011;2332;38.646;-9.154;2023-02-28T05:17:33;6.73;;;5.43;;
4638;SDS011;2332;38.646;-9.154;2023-02-28T05:19:58;11.73;;;5.93;;
4638;SDS011;2332;38.646;-9.154;2023-02-28T05:22:24;6.77;;;4.80;;
4638;SDS011;2332;38.646;-9.154;2023-02-28T05:24:49;8.50;;;4.97;;
4638;SDS011;2332;38.646;-9.154;2023-02-28T05:27:15;13.03;;;4.83;;
4638;SDS011;2332;38.646;-9.154;2023-02-28T05:29:40;15.10;;;5.83;;
4638;SDS011;2332;38.646;-9.154;2023-02-28T05:32:09;8.57;;;4.40;;
4638;SDS011;2332;38.646;-9.154;2023-02-28T05:34:35;7.37;;;4.40;;
4638;SDS011;2332;38.646;-9.154;2023-02-28T05:37:01;16.03;;;4.40;;
4638;SDS011;2332;38.646;-9.154;2023-02-28T05:39:26;12.53;;;4.80;;
4638;SDS011;2332;38.646;-9.154;2023-02-28T05:41:52;11.93;;;5.50;;
4638;SDS011;2332;38.646;-9.154;2023-02-28T05:44:20;6.97;;;4.17;;
4638;SDS011;2332;38.646;-9.154;2023-02-28T05:46:45;8.30;;;5.67;;
4638;SDS011;2332;38.646;-9.154;2023-02-28T05:49:10;6.57;;;4.00;;
4638;SDS011;2332;38.646;-9.154;2023-02-28T05:51:36;5.43;;;3.87;;
4638;SDS011;2332;38.646;-9.154;2023-02-28T05:54:04;13.53;;;4.80;;
4638;SDS011;2332;38.646;-9.154;2023-02-28T05:56:30;8.30;;;4.63;;
4638;SDS011;2332;38.646;-9.154;2023-02-28T05:58:55;7.70;;;4.33;;
4638;SDS011;2332;38.646;-9.154;2023-02-28T06:01:38;12.20;;;4.77;;
4638;SDS011;2332;38.646;-9.154;2023-02-28T06:04:05;9.83;;;4.67;;
4638;SDS011;2332;38.646;-9.154;2023-02-28T06:06:31;8.27;;;4.30;;
4638;SDS011;2332;38.646;-9.154;2023-02-28T06:08:59;4.03;;;3.73;;
4638;SDS011;2332;38.646;-9.154;2023-02-28T06:11:24;6.83;;;3.60;;
4638;SDS011;2332;38.646;-9.154;2023-02-28T06:13:55;8.07;;;3.80;;
4638;SDS011;2332;38.646;-9.154;2023-02-28T06:16:21;4.07;;;2.90;;
4638;SDS011;2332;38.646;-9.154;2023-02-28T06:18:47;6.67;;;3.20;;
4638;SDS011;2332;38.646;-9.154;2023-02-28T06:21:12;8.47;;;3.00;;
4638;SDS011;2332;38.646;-9.154;2023-02-28T06:23:37;3.70;;;2.83;;
4638;SDS011;2332;38.646;-9.154;2023-02-28T06:26:03;5.37;;;3.00;;
4638;SDS011;2332;38.646;-9.154;2023-02-28T06:28:28;6.70;;;3.07;;
4638;SDS011;2332;38.646;-9.154;2023-02-28T06:30:54;7.73;;;3.70;;
4638;SDS011;2332;38.646;-9.154;2023-02-28T06:33:19;2.77;;;2.50;;
4638;SDS011;2332;38.646;-9.154;2023-02-28T06:35:46;4.80;;;3.70;;
4638;SDS011;2332;38.646;-9.154;2023-02-28T06:38:11;9.90;;;3.27;;
4638;SDS011;2332;38.646;-9.154;2023-02-28T06:40:37;6.83;;;3.77;;
4638;SDS011;2332;38.646;-9.154;2023-02-28T06:43:02;5.53;;;3.37;;
4638;SDS011;2332;38.646;-9.154;2023-02-28T06:45:28;4.27;;;2.80;;
4638;SDS011;2332;38.646;-9.154;2023-02-28T06:47:53;2.93;;;2.43;;
4638;SDS011;2332;38.646;-9.154;2023-02-28T06:50:19;5.13;;;3.20;;
4638;SDS011;2332;38.646;-9.154;2023-02-28T06:52:47;4.07;;;2.60;;
4638;SDS011;2332;38.646;-9.154;2023-02-28T06:55:13;3.50;;;2.83;;
4638;SDS011;2332;38.646;-9.154;2023-02-28T06:57:43;3.73;;;2.50;;
4638;SDS011;2332;38.646;-9.154;2023-02-28T07:00:08;2.63;;;2.23;;
4638;SDS011;2332;38.646;-9.154;2023-02-28T07:02:34;5.73;;;2.93;;
4638;SDS011;2332;38.646;-9.154;2023-02-28T07:05:00;6.30;;;2.30;;
4638;SDS011;2332;38.646;-9.154;2023-02-28T07:07:25;3.37;;;2.20;;
4638;SDS011;2332;38.646;-9.154;2023-02-28T07:09:51;3.23;;;2.23;;
4638;SDS011;2332;38.646;-9.154;2023-02-28T07:12:16;10.97;;;2.73;;
4638;SDS011;2332;38.646;-9.154;2023-02-28T07:14:42;4.30;;;2.40;;
4638;SDS011;2332;38.646;-9.154;2023-02-28T07:17:09;6.10;;;2.60;;
4638;SDS011;2332;38.646;-9.154;2023-02-28T07:19:37;7.03;;;2.77;;
4638;SDS011;2332;38.646;-9.154;2023-02-28T07:22:02;3.80;;;2.30;;
4638;SDS011;2332;38.646;-9.154;2023-02-28T07:24:28;4.40;;;2.50;;
4638;SDS011;2332;38.646;-9.154;2023-02-28T07:26:54;3.00;;;2.23;;
4638;SDS011;2332;38.646;-9.154;2023-02-28T07:29:19;3.23;;;2.00;;
4638;SDS011;2332;38.646;-9.154;2023-02-28T07:31:45;5.43;;;2.20;;
4638;SDS011;2332;38.646;-9.154;2023-02-28T07:34:11;3.23;;;1.90;;
4638;SDS011;2332;38.646;-9.154;2023-02-28T07:36:39;4.03;;;1.67;;
4638;SDS011;2332;38.646;-9.154;2023-02-28T07:39:05;6.40;;;1.80;;
4638;SDS011;2332;38.646;-9.154;2023-02-28T07:41:30;1.63;;;1.40;;
4638;SDS011;2332;38.646;-9.154;2023-02-28T07:43:58;3.70;;;2.23;;
4638;SDS011;2332;38.646;-9.154;2023-02-28T07:46:25;2.87;;;2.07;;
4638;SDS011;2332;38.646;-9.154;2023-02-28T07:48:50;7.70;;;1.80;;
4638;SDS011;2332;38.646;-9.154;2023-02-28T07:51:16;6.83;;;1.80;;
4638;SDS011;2332;38.646;-9.154;2023-02-28T07:53:42;7.30;;;1.90;;
4638;SDS011;2332;38.646;-9.154;2023-02-28T07:56:07;3.30;;;1.83;;
4638;SDS011;2332;38.646;-9.154;2023-02-28T07:58:32;2.10;;;1.97;;
4638;SDS011;2332;38.646;-9.154;2023-02-28T08:01:04;4.70;;;1.90;;
4638;SDS011;2332;38.646;-9.154;2023-02-28T08:03:30;3.67;;;1.90;;
4638;SDS011;2332;38.646;-9.154;2023-02-28T08:05:55;3.23;;;2.37;;
4638;SDS011;2332;38.646;-9.154;2023-02-28T08:08:21;4.30;;;2.10;;
4638;SDS011;2332;38.646;-9.154;2023-02-28T08:10:46;10.30;;;2.83;;
4638;SDS011;2332;38.646;-9.154;2023-02-28T08:13:11;3.70;;;2.20;;
4638;SDS011;2332;38.646;-9.154;2023-02-28T08:15:37;4.97;;;2.20;;
4638;SDS011;2332;38.646;-9.154;2023-02-28T08:18:02;2.23;;;1.90;;
4638;SDS011;2332;38.646;-9.154;2023-02-28T08:20:28;1.80;;;1.70;;
4638;SDS011;2332;38.646;-9.154;2023-02-28T08:22:56;2.03;;;1.93;;
4638;SDS011;2332;38.646;-9.154;2023-02-28T08:25:22;2.60;;;2.40;;
4638;SDS011;2332;38.646;-9.154;2023-02-28T08:27:47;4.43;;;2.60;;
4638;SDS011;2332;38.646;-9.154;2023-02-28T08:30:13;3.23;;;2.50;;
4638;SDS011;2332;38.646;-9.154;2023-02-28T08:32:39;4.47;;;2.37;;
4638;SDS011;2332;38.646;-9.154;2023-02-28T08:35:05;7.33;;;2.60;;
4638;SDS011;2332;38.646;-9.154;2023-02-28T08:37:30;3.03;;;2.57;;
4638;SDS011;2332;38.646;-9.154;2023-02-28T08:39:59;15.40;;;2.47;;
4638;SDS011;2332;38.646;-9.154;2023-02-28T08:42:25;11.63;;;5.83;;
4638;SDS011;2332;38.646;-9.154;2023-02-28T08:44:57;2.60;;;1.80;;
4638;SDS011;2332;38.646;-9.154;2023-02-28T08:47:25;3.90;;;1.90;;
4638;SDS011;2332;38.646;-9.154;2023-02-28T08:50:10;4.03;;;1.97;;
4638;SDS011;2332;38.646;-9.154;2023-02-28T08:52:36;6.80;;;2.40;;
4638;SDS011;2332;38.646;-9.154;2023-02-28T08:55:02;5.17;;;2.03;;
4638;SDS011;2332;38.646;-9.154;2023-02-28T08:57:27;4.80;;;2.77;;
4638;SDS011;2332;38.646;-9.154;2023-02-28T08:59:52;4.40;;;2.03;;
4638;SDS011;2332;38.646;-9.154;2023-02-28T09:02:18;2.93;;;2.27;;
4638;SDS011;2332;38.646;-9.154;2023-02-28T09:04:43;2.30;;;1.83;;
4638;SDS011;2332;38.646;-9.154;2023-02-28T09:07:11;5.03;;;1.60;;
4638;SDS011;2332;38.646;-9.154;2023-02-28T09:09:37;2.20;;;2.10;;
4638;SDS011;2332;38.646;-9.154;2023-02-28T09:12:03;2.90;;;1.93;;
4638;SDS011;2332;38.646;-9.154;2023-02-28T09:14:28;5.87;;;2.20;;
4638;SDS011;2332;38.646;-9.154;2023-02-28T09:16:54;2.60;;;2.03;;
4638;SDS011;2332;38.646;-9.154;2023-02-28T09:19:20;2.43;;;1.70;;
4638;SDS011;2332;38.646;-9.154;2023-02-28T09:21:45;2.00;;;1.80;;
4638;SDS011;2332;38.646;-9.154;2023-02-28T09:24:10;7.33;;;2.00;;
4638;SDS011;2332;38.646;-9.154;2023-02-28T09:26:39;2.80;;;1.87;;
4638;SDS011;2332;38.646;-9.154;2023-02-28T09:29:05;2.13;;;1.93;;
4638;SDS011;2332;38.646;-9.154;2023-02-28T09:31:31;9.73;;;1.83;;
4638;SDS011;2332;38.646;-9.154;2023-02-28T09:33:57;2.07;;;1.70;;
4638;SDS011;2332;38.646;-9.154;2023-02-28T09:36:26;4.03;;;2.20;;
4638;SDS011;2332;38.646;-9.154;2023-02-28T09:38:53;4.33;;;2.57;;
4638;SDS011;2332;38.646;-9.154;2023-02-28T09:41:22;4.90;;;1.90;;
4638;SDS011;2332;38.646;-9.154;2023-02-28T09:44:01;2.90;;;1.83;;
4638;SDS011;2332;38.646;-9.154;2023-02-28T09:48:53;2.50;;;2.07;;
4638;SDS011;2332;38.646;-9.154;2023-02-28T09:51:29;2.17;;;2.00;;
4638;SDS011;2332;38.646;-9.154;2023-02-28T09:53:55;4.13;;;1.70;;
4638;SDS011;2332;38.646;-9.154;2023-02-28T09:56:24;2.20;;;1.87;;
4638;SDS011;2332;38.646;-9.154;2023-02-28T09:58:55;3.47;;;2.10;;
4638;SDS011;2332;38.646;-9.154;2023-02-28T10:01:27;6.27;;;2.30;;
4638;SDS011;2332;38.646;-9.154;2023-02-28T10:06:44;3.53;;;2.10;;
4638;SDS011;2332;38.646;-9.154;2023-02-28T10:09:14;5.70;;;2.00;;
4638;SDS011;2332;38.646;-9.154;2023-02-28T10:11:42;2.40;;;2.20;;
4638;SDS011;2332;38.646;-9.154;2023-02-28T10:16:39;3.27;;;1.93;;
4638;SDS011;2332;38.646;-9.154;2023-02-28T10:19:11;3.43;;;2.43;;
4638;SDS011;2332;38.646;-9.154;2023-02-28T10:21:39;2.77;;;2.33;;
4638;SDS011;2332;38.646;-9.154;2023-02-28T10:24:11;4.00;;;2.33;;
4638;SDS011;2332;38.646;-9.154;2023-02-28T10:26:40;3.00;;;2.30;;
4638;SDS011;2332;38.646;-9.154;2023-02-28T10:29:07;4.40;;;1.80;;
4638;SDS011;2332;38.646;-9.154;2023-02-28T10:31:33;3.23;;;2.23;;
4638;SDS011;2332;38.646;-9.154;2023-02-28T10:33:58;2.90;;;2.00;;
4638;SDS011;2332;38.646;-9.154;2023-02-28T10:36:24;3.63;;;2.10;;
4638;SDS011;2332;38.646;-9.154;2023-02-28T10:38:49;2.33;;;2.03;;
4638;SDS011;2332;38.646;-9.154;2023-02-28T10:43:41;2.43;;;2.23;;
4638;SDS011;2332;38.646;-9.154;2023-02-28T10:51:01;5.33;;;2.00;;
4638;SDS011;2332;38.646;-9.154;2023-02-28T10:53:33;4.03;;;1.80;;
4638;SDS011;2332;38.646;-9.154;2023-02-28T11:03:49;6.70;;;2.00;;
4638;SDS011;2332;38.646;-9.154;2023-02-28T11:06:16;2.10;;;2.00;;
4638;SDS011;2332;38.646;-9.154;2023-02-28T11:08:46;2.63;;;2.43;;
4638;SDS011;2332;38.646;-9.154;2023-02-28T11:11:12;3.40;;;2.47;;
4638;SDS011;2332;38.646;-9.154;2023-02-28T11:13:37;8.40;;;2.40;;
4638;SDS011;2332;38.646;-9.154;2023-02-28T11:16:07;5.00;;;2.80;;
4638;SDS011;2332;38.646;-9.154;2023-02-28T11:18:37;3.40;;;2.50;;
4638;SDS011;2332;38.646;-9.154;2023-02-28T11:21:05;2.37;;;2.17;;
4638;SDS011;2332;38.646;-9.154;2023-02-28T11:23:34;2.30;;;2.10;;
4638;SDS011;2332;38.646;-9.154;2023-02-28T11:26:02;2.73;;;2.50;;
4638;SDS011;2332;38.646;-9.154;2023-02-28T11:28:36;2.47;;;2.23;;
4638;SDS011;2332;38.646;-9.154;2023-02-28T11:31:03;4.73;;;2.20;;
4638;SDS011;2332;38.646;-9.154;2023-02-28T11:33:40;3.83;;;2.83;;
4638;SDS011;2332;38.646;-9.154;2023-02-28T11:36:25;2.60;;;2.40;;
4638;SDS011;2332;38.646;-9.154;2023-02-28T11:38:51;2.93;;;2.17;;
4638;SDS011;2332;38.646;-9.154;2023-02-28T11:49:30;4.20;;;2.30;;
4638;SDS011;2332;38.646;-9.154;2023-02-28T11:54:56;3.33;;;2.93;;
4638;SDS011;2332;38.646;-9.154;2023-02-28T11:57:32;2.63;;;2.43;;
4638;SDS011;2332;38.646;-9.154;2023-02-28T12:02:36;3.17;;;2.10;;
4638;SDS011;2332;38.646;-9.154;2023-02-28T12:10:17;2.23;;;2.03;;
4638;SDS011;2332;38.646;-9.154;2023-02-28T12:23:51;8.23;;;2.17;;
4638;SDS011;2332;38.646;-9.154;2023-02-28T12:28:46;3.10;;;1.80;;
4638;SDS011;2332;38.646;-9.154;2023-02-28T12:31:18;2.50;;;2.17;;
4638;SDS011;2332;38.646;-9.154;2023-02-28T12:33:48;1.83;;;1.73;;
4638;SDS011;2332;38.646;-9.154;2023-02-28T12:36:16;6.27;;;1.97;;
4638;SDS011;2332;38.646;-9.154;2023-02-28T12:41:19;2.60;;;2.00;;
4638;SDS011;2332;38.646;-9.154;2023-02-28T12:43:51;3.27;;;2.00;;
4638;SDS011;2332;38.646;-9.154;2023-02-28T12:46:27;2.07;;;1.90;;
4638;SDS011;2332;38.646;-9.154;2023-02-28T12:48:57;5.90;;;2.10;;
4638;SDS011;2332;38.646;-9.154;2023-02-28T12:51:24;2.70;;;1.70;;
4638;SDS011;2332;38.646;-9.154;2023-02-28T12:54:07;1.70;;;1.60;;
4638;SDS011;2332;38.646;-9.154;2023-02-28T13:07:14;4.10;;;1.73;;
4638;SDS011;2332;38.646;-9.154;2023-02-28T13:09:54;4.10;;;1.33;;
4638;SDS011;2332;38.646;-9.154;2023-02-28T13:12:20;4.17;;;1.57;;
4638;SDS011;2332;38.646;-9.154;2023-02-28T13:14:48;5.43;;;1.80;;
4638;SDS011;2332;38.646;-9.154;2023-02-28T13:17:21;5.30;;;2.87;;
4638;SDS011;2332;38.646;-9.154;2023-02-28T13:22:20;4.30;;;1.90;;
4638;SDS011;2332;38.646;-9.154;2023-02-28T13:27:20;2.53;;;1.40;;
4638;SDS011;2332;38.646;-9.154;2023-02-28T13:29:49;2.90;;;1.20;;
4638;SDS011;2332;38.646;-9.154;2023-02-28T13:32:34;1.60;;;1.10;;
4638;SDS011;2332;38.646;-9.154;2023-02-28T13:37:37;1.50;;;1.40;;
4638;SDS011;2332;38.646;-9.154;2023-02-28T13:42:47;1.60;;;1.30;;
4638;SDS011;2332;38.646;-9.154;2023-02-28T13:45:27;4.93;;;1.07;;
4638;SDS011;2332;38.646;-9.154;2023-02-28T13:48:02;2.60;;;0.90;;
4638;SDS011;2332;38.646;-9.154;2023-02-28T13:50:29;2.37;;;1.10;;
4638;SDS011;2332;38.646;-9.154;2023-02-28T14:01:05;2.50;;;1.20;;
4638;SDS011;2332;38.646;-9.154;2023-02-28T14:09:37;5.00;;;1.47;;
4638;SDS011;2332;38.646;-9.154;2023-02-28T14:11:38;2.83;;;1.63;;
4638;SDS011;2332;38.646;-9.154;2023-02-28T14:14:04;3.47;;;1.40;;
4638;SDS011;2332;38.646;-9.154;2023-02-28T14:16:37;1.50;;;1.40;;
4638;SDS011;2332;38.646;-9.154;2023-02-28T14:19:24;6.00;;;1.27;;
4638;SDS011;2332;38.646;-9.154;2023-02-28T14:27:05;4.10;;;1.20;;
4638;SDS011;2332;38.646;-9.154;2023-02-28T14:32:02;0.90;;;0.90;;
4638;SDS011;2332;38.646;-9.154;2023-02-28T14:34:41;2.10;;;1.40;;
4638;SDS011;2332;38.646;-9.154;2023-02-28T14:37:13;1.23;;;1.00;;
4638;SDS011;2332;38.646;-9.154;2023-02-28T14:39:41;9.17;;;1.83;;
4638;SDS011;2332;38.646;-9.154;2023-02-28T14:44:56;4.20;;;2.47;;
4638;SDS011;2332;38.646;-9.154;2023-02-28T14:47:22;5.50;;;2.10;;
4638;SDS011;2332;38.646;-9.154;2023-02-28T14:49:48;1.60;;;1.30;;
4638;SDS011;2332;38.646;-9.154;2023-02-28T14:52:21;7.30;;;2.10;;
4638;SDS011;2332;38.646;-9.154;2023-02-28T14:54:54;3.57;;;2.33;;
4638;SDS011;2332;38.646;-9.154;2023-02-28T14:57:22;4.20;;;1.60;;
4638;SDS011;2332;38.646;-9.154;2023-02-28T14:59:56;6.53;;;1.83;;
4638;SDS011;2332;38.646;-9.154;2023-02-28T15:02:22;4.13;;;1.67;;
4638;SDS011;2332;38.646;-9.154;2023-02-28T15:04:58;3.63;;;1.37;;
4638;SDS011;2332;38.646;-9.154;2023-02-28T15:07:24;1.70;;;1.60;;
4638;SDS011;2332;38.646;-9.154;2023-02-28T15:12:37;2.87;;;1.70;;
4638;SDS011;2332;38.646;-9.154;2023-02-28T15:15:04;4.20;;;2.20;;
4638;SDS011;2332;38.646;-9.154;2023-02-28T15:17:30;4.07;;;1.80;;
4638;SDS011;2332;38.646;-9.154;2023-02-28T15:19:56;6.43;;;2.27;;
4638;SDS011;2332;38.646;-9.154;2023-02-28T15:22:27;4.70;;;2.23;;
4638;SDS011;2332;38.646;-9.154;2023-02-28T15:24:54;5.23;;;2.70;;
4638;SDS011;2332;38.646;-9.154;2023-02-28T15:27:25;4.50;;;2.20;;
4638;SDS011;2332;38.646;-9.154;2023-02-28T15:29:54;5.70;;;2.20;;
4638;SDS011;2332;38.646;-9.154;2023-02-28T15:32:29;2.90;;;2.00;;
4638;SDS011;2332;38.646;-9.154;2023-02-28T15:34:56;3.93;;;2.53;;
4638;SDS011;2332;38.646;-9.154;2023-02-28T15:39:50;4.20;;;2.13;;
4638;SDS011;2332;38.646;-9.154;2023-02-28T15:42:19;3.50;;;2.20;;
4638;SDS011;2332;38.646;-9.154;2023-02-28T15:44:45;4.50;;;2.17;;
4638;SDS011;2332;38.646;-9.154;2023-02-28T15:47:18;3.20;;;2.60;;
4638;SDS011;2332;38.646;-9.154;2023-02-28T15:49:48;2.87;;;2.27;;
4638;SDS011;2332;38.646;-9.154;2023-02-28T15:52:19;6.37;;;2.63;;
4638;SDS011;2332;38.646;-9.154;2023-02-28T15:54:45;26.67;;;3.60;;
4638;SDS011;2332;38.646;-9.154;2023-02-28T15:57:13;3.67;;;2.40;;
4638;SDS011;2332;38.646;-9.154;2023-02-28T15:59:42;3.10;;;2.17;;
4638;SDS011;2332;38.646;-9.154;2023-02-28T16:04:35;9.57;;;2.80;;
4638;SDS011;2332;38.646;-9.154;2023-02-28T16:07:03;7.23;;;2.57;;
4638;SDS011;2332;38.646;-9.154;2023-02-28T16:09:28;4.33;;;2.40;;
4638;SDS011;2332;38.646;-9.154;2023-02-28T16:11:56;2.53;;;2.33;;
4638;SDS011;2332;38.646;-9.154;2023-02-28T16:14:24;2.23;;;2.00;;
4638;SDS011;2332;38.646;-9.154;2023-02-28T16:16:53;7.43;;;3.17;;
4638;SDS011;2332;38.646;-9.154;2023-02-28T16:19:21;6.70;;;2.47;;
4638;SDS011;2332;38.646;-9.154;2023-02-28T16:21:47;2.50;;;2.40;;
4638;SDS011;2332;38.646;-9.154;2023-02-28T16:24:13;4.43;;;2.47;;
4638;SDS011;2332;38.646;-9.154;2023-02-28T16:26:39;4.43;;;2.67;;
4638;SDS011;2332;38.646;-9.154;2023-02-28T16:29:05;5.23;;;2.27;;
4638;SDS011;2332;38.646;-9.154;2023-02-28T16:31:33;2.30;;;2.10;;
4638;SDS011;2332;38.646;-9.154;2023-02-28T16:34:00;5.53;;;2.77;;
4638;SDS011;2332;38.646;-9.154;2023-02-28T16:36:25;3.93;;;3.20;;
4638;SDS011;2332;38.646;-9.154;2023-02-28T16:38:51;10.47;;;3.00;;
4638;SDS011;2332;38.646;-9.154;2023-02-28T16:41:18;5.63;;;2.80;;
4638;SDS011;2332;38.646;-9.154;2023-02-28T16:43:45;6.17;;;3.40;;
4638;SDS011;2332;38.646;-9.154;2023-02-28T16:46:11;4.43;;;3.00;;
4638;SDS011;2332;38.646;-9.154;2023-02-28T16:48:37;7.93;;;2.30;;
4638;SDS011;2332;38.646;-9.154;2023-02-28T16:51:03;6.10;;;3.20;;
4638;SDS011;2332;38.646;-9.154;2023-02-28T16:53:29;6.00;;;3.00;;
4638;SDS011;2332;38.646;-9.154;2023-02-28T16:55:54;3.90;;;2.40;;
4638;SDS011;2332;38.646;-9.154;2023-02-28T16:58:20;4.70;;;2.00;;
4638;SDS011;2332;38.646;-9.154;2023-02-28T17:00:46;4.67;;;2.80;;
4638;SDS011;2332;38.646;-9.154;2023-02-28T17:03:25;3.30;;;2.70;;
4638;SDS011;2332;38.646;-9.154;2023-02-28T17:05:51;5.90;;;2.60;;
4638;SDS011;2332;38.646;-9.154;2023-02-28T17:08:16;7.10;;;2.70;;
4638;SDS011;2332;38.646;-9.154;2023-02-28T17:10:42;5.97;;;2.63;;
4638;SDS011;2332;38.646;-9.154;2023-02-28T17:13:07;4.50;;;2.80;;
4638;SDS011;2332;38.646;-9.154;2023-02-28T17:15:33;7.43;;;2.53;;
4638;SDS011;2332;38.646;-9.154;2023-02-28T17:17:58;7.40;;;2.67;;
4638;SDS011;2332;38.646;-9.154;2023-02-28T17:20:24;3.40;;;3.10;;
4638;SDS011;2332;38.646;-9.154;2023-02-28T17:22:51;4.07;;;2.63;;
4638;SDS011;2332;38.646;-9.154;2023-02-28T17:25:17;5.33;;;3.07;;
4638;SDS011;2332;38.646;-9.154;2023-02-28T17:27:42;3.93;;;3.10;;